Time;durP1;ratioP1;P1;durP2;ratioP2;P2;SDS_P1;SDS_P2;PMS_P1;PMS_P2;Temp;Humidity;BMP_temperature;BMP_pressure;BME280_temperature;BME280_humidity;BME280_pressure;Samples;Min_cycle;Max_cycle;Signal;HPM_P1;HPM_P2
2022/08/13 00:05:00;;;;;;;6.75;2.40;;;;;;;23.15;36.67;98191.28;5081108;28;20451;-49
2022/08/13 00:07:27;;;;;;;7.30;2.55;;;;;;;23.16;36.21;98182.19;5093639;28;20023;-49
2022/08/13 00:09:55;;;;;;;8.32;2.60;;;;;;;23.13;36.25;98188.09;5092169;28;20034;-49
2022/08/13 00:15:28;;;;;;;9.13;2.90;;;;;;;23.23;36.75;98181.78;5093601;28;20784;-49
2022/08/13 00:17:57;;;;;;;9.55;2.58;;;;;;;23.37;36.01;98179.13;5093666;28;20460;-49
2022/08/13 00:20:27;;;;;;;3.72;2.58;;;;;;;23.47;35.93;98177.03;5093292;28;20559;-49
2022/08/13 00:22:54;;;;;;;7.85;2.67;;;;;;;23.58;35.90;98179.50;5093292;28;20027;-48
2022/08/13 00:25:20;;;;;;;11.43;2.72;;;;;;;23.76;35.90;98177.81;5093077;28;20126;-49
2022/08/13 00:27:51;;;;;;;8.27;2.55;;;;;;;23.73;35.34;98173.88;5093088;28;20503;-49
2022/08/13 00:30:18;;;;;;;5.40;2.40;;;;;;;23.51;35.88;98177.25;5093447;28;20024;-49
2022/08/13 00:32:45;;;;;;;8.45;2.60;;;;;;;23.27;36.33;98174.75;5091759;28;20064;-49
2022/08/13 00:35:12;;;;;;;4.35;2.72;;;;;;;23.12;36.83;98181.19;5092949;28;20421;-49
2022/08/13 00:37:41;;;;;;;5.68;2.28;;;;;;;23.10;36.57;98177.97;5092853;28;20024;-49
2022/08/13 00:40:10;;;;;;;3.20;2.22;;;;;;;23.16;35.91;98179.50;5092907;28;20512;-49
2022/08/13 00:42:37;;;;;;;9.95;2.30;;;;;;;23.19;36.21;98173.53;5092958;28;20027;-49
2022/08/13 00:45:05;;;;;;;3.30;2.20;;;;;;;23.41;36.08;98178.22;5092789;28;20107;-49
2022/08/13 00:50:18;;;;;;;5.97;2.38;;;;;;;24.05;34.67;98172.16;5092786;28;20417;-49
2022/08/13 00:52:45;;;;;;;13.02;3.28;;;;;;;24.11;34.71;98177.09;5092722;28;20050;-49
2022/08/13 00:55:16;;;;;;;13.70;2.97;;;;;;;24.19;34.41;98185.53;5091266;28;20028;-49
2022/08/13 00:57:44;;;;;;;10.30;2.72;;;;;;;24.26;34.59;98184.00;5092663;28;20020;-49
2022/08/13 01:00:17;;;;;;;9.65;2.25;;;;;;;24.37;34.10;98187.25;5092601;28;20032;-49
2022/08/13 01:02:46;;;;;;;4.85;2.28;;;;;;;24.33;33.78;98181.72;5091326;28;20028;-49
2022/08/13 01:05:12;;;;;;;9.25;2.75;;;;;;;24.07;34.42;98183.38;5092526;28;20024;-49
2022/08/13 01:07:41;;;;;;;5.30;2.65;;;;;;;23.86;35.36;98188.34;5091174;28;20027;-49
2022/08/13 01:10:12;;;;;;;7.07;2.30;;;;;;;23.89;34.88;98182.41;5092630;28;20040;-49
2022/08/13 01:12:39;;;;;;;9.43;2.72;;;;;;;23.78;36.15;98191.75;5092425;28;20450;-49
2022/08/13 01:15:13;;;;;;;6.60;2.75;;;;;;;23.46;36.00;98190.72;5092258;28;20399;-49
2022/08/13 01:17:45;;;;;;;11.52;2.80;;;;;;;22.99;38.58;98187.25;5092358;28;20105;-49
2022/08/13 01:20:22;;;;;;;14.18;3.33;;;;;;;22.50;41.48;98189.38;5090909;28;20024;-49
2022/08/13 01:22:52;;;;;;;7.50;2.70;;;;;;;22.54;40.27;98195.75;5092235;28;20031;-49
2022/08/13 01:25:25;;;;;;;10.85;3.00;;;;;;;22.43;40.47;98199.63;5090651;28;20127;-49
2022/08/13 01:27:53;;;;;;;5.07;2.75;;;;;;;22.37;40.40;98201.59;5092178;28;20367;-49
2022/08/13 01:30:22;;;;;;;5.35;3.40;;;;;;;22.18;40.24;98201.56;5092115;28;20109;-48
2022/08/13 01:32:49;;;;;;;9.40;3.65;;;;;;;22.05;40.55;98205.72;5092329;28;20020;-49
2022/08/13 01:35:16;;;;;;;9.45;3.53;;;;;;;21.91;40.97;98202.97;5090619;28;20567;-48
2022/08/13 01:37:43;;;;;;;6.55;2.95;;;;;;;21.86;40.79;98207.59;5090749;28;20028;-49
2022/08/13 01:40:10;;;;;;;6.32;2.47;;;;;;;21.91;40.64;98207.50;5092035;28;20028;-49
2022/08/13 01:42:47;;;;;;;3.83;2.47;;;;;;;21.94;40.35;98209.63;5090689;28;20020;-49
2022/08/13 01:45:14;;;;;;;5.35;2.50;;;;;;;21.91;40.62;98218.19;5092009;28;20032;-49
2022/08/13 01:50:29;;;;;;;;;;;;;;;21.79;40.34;98215.13;5092313;28;20507;-49
2022/08/13 01:53:01;;;;;;;2.25;2.05;;;;;;;21.65;41.05;98215.03;5090617;28;19911;-48
2022/08/13 01:55:42;;;;;;;5.03;2.50;;;;;;;21.55;41.07;98218.63;5091825;28;20024;-49
2022/08/13 01:58:14;;;;;;;4.25;2.22;;;;;;;21.49;41.35;98212.53;5091848;28;20111;-49
2022/08/13 02:00:45;;;;;;;5.38;2.30;;;;;;;21.47;40.74;98208.53;5091858;28;20035;-49
2022/08/13 02:03:12;;;;;;;6.32;2.08;;;;;;;21.50;40.04;98208.78;5090550;28;20547;-49
2022/08/13 02:05:39;;;;;;;6.85;2.40;;;;;;;21.50;40.15;98208.00;5090418;28;20084;-49
2022/08/13 02:08:07;;;;;;;3.63;1.95;;;;;;;21.43;40.08;98210.19;5091728;28;20036;-49
2022/08/13 02:10:34;;;;;;;3.72;2.00;;;;;;;21.34;40.23;98228.69;5091710;28;20013;-49
2022/08/13 02:13:00;;;;;;;7.85;1.92;;;;;;;21.25;39.91;98220.50;5091654;28;20432;-49
2022/08/13 02:15:25;;;;;;;3.95;1.90;;;;;;;21.20;39.75;98223.19;5091550;28;20027;-48
2022/08/13 02:17:52;;;;;;;8.07;2.85;;;;;;;21.17;39.83;98223.78;5091653;28;20020;-49
2022/08/13 02:20:18;;;;;;;3.65;2.10;;;;;;;21.23;39.70;98219.16;5091588;28;20020;-49
2022/08/13 02:22:46;;;;;;;4.03;2.10;;;;;;;21.25;39.82;98227.69;5090291;28;20024;-49
2022/08/13 02:25:13;;;;;;;5.28;2.30;;;;;;;21.22;39.77;98226.38;5089825;28;20093;-49
2022/08/13 02:27:40;;;;;;;4.90;2.30;;;;;;;21.18;40.08;98232.56;5090218;28;20118;-48
2022/08/13 02:30:10;;;;;;;4.63;2.78;;;;;;;21.19;40.02;98228.81;5090450;28;20409;-49
2022/08/13 02:32:37;;;;;;;4.57;1.98;;;;;;;21.22;40.17;98229.03;5091504;28;20031;-49
2022/08/13 02:35:04;;;;;;;4.60;2.60;;;;;;;21.28;39.97;98237.81;5090150;28;20748;-48
2022/08/13 02:37:32;;;;;;;5.70;2.13;;;;;;;21.34;39.91;98236.69;5091520;28;20016;-49
2022/08/13 02:39:59;;;;;;;7.72;2.58;;;;;;;21.34;39.91;98232.13;5091715;28;20028;-49
2022/08/13 02:42:31;;;;;;;3.55;2.47;;;;;;;21.46;39.61;98225.66;5091341;28;20035;-49
2022/08/13 02:44:57;;;;;;;6.65;2.40;;;;;;;21.43;40.09;98232.38;5091362;28;20040;-48
2022/08/13 02:47:25;;;;;;;9.25;2.50;;;;;;;21.27;40.43;98231.69;5090023;28;20020;-49
2022/08/13 02:49:52;;;;;;;5.88;2.00;;;;;;;21.11;40.32;98230.22;5091324;28;20120;-49
2022/08/13 02:52:22;;;;;;;5.85;2.50;;;;;;;21.00;40.90;98228.72;5091342;28;20016;-49
2022/08/13 02:54:49;;;;;;;2.38;1.90;;;;;;;20.94;40.99;98230.63;5091269;28;20024;-49
2022/08/13 02:57:15;;;;;;;4.85;2.00;;;;;;;20.99;40.50;98229.78;5089969;28;20042;-49
2022/08/13 02:59:43;;;;;;;3.15;2.35;;;;;;;21.00;40.42;98228.72;5091262;28;20095;-49
2022/08/13 03:02:11;;;;;;;6.85;1.98;;;;;;;20.96;40.59;98228.47;5094107;28;20020;-49
2022/08/13 03:04:42;;;;;;;6.53;2.13;;;;;;;20.90;40.67;98230.38;5094824;28;20032;-49
2022/08/13 03:07:08;;;;;;;9.38;2.53;;;;;;;20.83;40.53;98231.78;5094817;28;20077;-49
2022/08/13 03:09:34;;;;;;;6.30;3.20;;;;;;;20.88;40.34;98237.06;5094778;28;20028;-49
2022/08/13 03:12:04;;;;;;;3.90;2.58;;;;;;;20.90;40.17;98238.38;5093379;28;20440;-49
2022/08/13 03:14:35;;;;;;;7.05;2.65;;;;;;;20.92;40.05;98230.91;5093360;28;20028;-49
2022/08/13 03:17:01;;;;;;;3.83;1.85;;;;;;;20.89;39.83;98236.81;5093206;28;20027;-49
2022/08/13 03:19:26;;;;;;;3.97;2.05;;;;;;;20.87;40.14;98236.28;5093225;28;20032;-49
2022/08/13 03:21:52;;;;;;;7.47;2.30;;;;;;;20.78;40.57;98239.81;5093134;28;20021;-49
2022/08/13 03:24:19;;;;;;;5.68;2.30;;;;;;;20.73;40.53;98244.13;5094173;28;20055;-49
2022/08/13 03:26:45;;;;;;;5.43;2.65;;;;;;;20.75;40.46;98236.63;5094399;28;20059;-49
2022/08/13 03:29:11;;;;;;;4.78;2.35;;;;;;;20.72;40.15;98231.06;5093011;28;20107;-49
2022/08/13 03:31:37;;;;;;;8.07;2.40;;;;;;;20.72;39.89;98237.19;5094257;28;20497;-49
2022/08/13 03:34:04;;;;;;;3.10;2.00;;;;;;;20.69;39.85;98244.97;5092941;28;20107;-49
2022/08/13 03:36:32;;;;;;;5.85;2.00;;;;;;;20.56;40.21;98246.31;5094396;28;20031;-47
2022/08/13 03:38:59;;;;;;;6.03;2.30;;;;;;;20.41;40.90;98241.91;5094114;28;20020;-47
2022/08/13 03:41:26;;;;;;;6.72;2.47;;;;;;;20.33;41.37;98240.59;5094096;28;20561;-47
2022/08/13 03:43:54;;;;;;;3.53;1.98;;;;;;;20.32;40.92;98240.88;5092802;28;20020;-47
2022/08/13 03:46:24;;;;;;;9.20;2.40;;;;;;;20.31;41.00;98233.97;5093972;28;20028;-47
2022/08/13 03:48:51;;;;;;;4.25;2.28;;;;;;;20.31;41.00;98236.63;5092693;28;20103;-47
2022/08/13 03:51:23;;;;;;;4.88;2.05;;;;;;;20.28;41.19;98237.97;5093964;28;20016;-47
2022/08/13 03:53:55;;;;;;;5.25;2.20;;;;;;;20.26;41.55;98233.97;5093898;28;20060;-48
2022/08/13 03:56:23;;;;;;;6.45;2.30;;;;;;;20.24;41.69;98230.78;5092499;28;20054;-47
2022/08/13 03:58:49;;;;;;;4.10;2.22;;;;;;;20.24;41.76;98230.78;5093776;28;20024;-48
2022/08/13 04:01:17;;;;;;;5.28;2.35;;;;;;;20.34;41.62;98230.72;5093661;28;20034;-47
2022/08/13 04:03:44;;;;;;;6.35;2.40;;;;;;;20.38;41.76;98233.66;5092476;28;20397;-47
2022/08/13 04:06:15;;;;;;;3.88;2.17;;;;;;;20.37;41.83;98230.19;5092342;28;20028;-47
2022/08/13 04:08:41;;;;;;;3.67;2.10;;;;;;;20.33;41.70;98227.28;5093666;28;20056;-49
2022/08/13 04:11:10;;;;;;;4.90;1.95;;;;;;;20.37;41.52;98230.19;5093047;28;20031;-49
2022/08/13 04:13:37;;;;;;;7.15;2.00;;;;;;;20.33;41.29;98237.13;5093408;28;20505;-49
2022/08/13 04:16:06;;;;;;;5.05;2.40;;;;;;;20.25;41.53;98233.19;5093307;28;20107;-50
2022/08/13 04:18:35;;;;;;;5.63;2.35;;;;;;;20.15;41.54;98233.22;5093277;28;20020;-49
2022/08/13 04:21:08;;;;;;;7.75;2.60;;;;;;;20.12;41.99;98233.78;5092012;28;20020;-49
2022/08/13 04:23:38;;;;;;;10.35;2.40;;;;;;;20.18;41.89;98235.34;5093024;28;20048;-49
2022/08/13 04:26:04;;;;;;;15.07;3.22;;;;;;;20.40;41.88;98237.63;5093242;28;20478;-49
2022/08/13 04:28:29;;;;;;;6.18;2.60;;;;;;;20.57;40.96;98239.16;5093241;28;20027;-49
2022/08/13 04:30:56;;;;;;;4.88;2.10;;;;;;;20.71;40.76;98240.16;5093138;28;20016;-49
2022/08/13 04:33:22;;;;;;;11.98;2.40;;;;;;;20.87;40.57;98243.50;5093115;28;20031;-49
2022/08/13 04:35:48;;;;;;;8.60;2.40;;;;;;;21.07;40.15;98239.88;5091753;28;20371;-48
2022/08/13 04:38:15;;;;;;;5.13;1.60;;;;;;;21.20;39.64;98246.44;5093032;28;20085;-48
2022/08/13 04:40:44;;;;;;;8.25;3.03;;;;;;;21.11;39.42;98255.03;5091609;28;20524;-47
2022/08/13 04:43:11;;;;;;;13.65;2.80;;;;;;;20.91;40.13;98260.53;5091628;28;20024;-47
2022/08/13 04:45:38;;;;;;;7.55;2.65;;;;;;;20.66;40.58;98264.94;5092827;28;20031;-47
2022/08/13 04:48:12;;;;;;;13.98;2.53;;;;;;;20.75;40.92;98251.84;5091564;28;20473;-47
2022/08/13 04:50:41;;;;;;;5.35;2.30;;;;;;;21.03;40.60;98254.84;5092846;28;20386;-47
2022/08/13 04:53:09;;;;;;;6.40;2.20;;;;;;;21.28;39.72;98254.59;5093042;28;20020;-48
2022/08/13 04:55:36;;;;;;;6.47;1.63;;;;;;;21.34;39.69;98255.38;5092573;28;20020;-47
2022/08/13 04:58:04;;;;;;;12.65;3.00;;;;;;;21.24;39.93;98252.78;5091340;28;20028;-47
2022/08/13 05:00:32;;;;;;;6.57;2.35;;;;;;;21.11;40.58;98255.03;5092556;28;20077;-47
2022/08/13 05:03:29;;;;;;;10.52;2.50;;;;;;;21.26;40.05;98250.63;5092573;28;20028;-47
2022/08/13 05:05:56;;;;;;;14.25;2.88;;;;;;;21.90;39.00;98254.03;5079873;28;20031;-47
2022/08/13 05:08:22;;;;;;;14.60;2.67;;;;;;;22.72;37.73;98252.97;5092489;28;20508;-47
2022/08/13 05:10:50;;;;;;;7.03;2.92;;;;;;;23.46;36.13;98252.31;5092332;28;20150;-47
2022/08/13 05:13:27;;;;;;;7.22;2.75;;;;;;;24.17;34.70;98246.72;5091068;28;20024;-47
2022/08/13 05:15:56;;;;;;;7.43;2.00;;;;;;;24.69;33.58;98236.47;5090972;28;20126;-46
2022/08/13 05:18:23;;;;;;;7.43;1.85;;;;;;;25.10;33.08;98235.47;5092460;28;20036;-47
2022/08/13 05:20:52;;;;;;;9.65;2.28;;;;;;;25.51;32.71;98237.94;5090889;28;20024;-47
2022/08/13 05:23:19;;;;;;;11.32;3.10;;;;;;;25.92;32.21;98254.88;5091249;28;20546;-47
2022/08/13 05:25:45;;;;;;;10.45;2.63;;;;;;;26.18;31.68;98246.88;5074048;28;20043;-48
2022/08/13 05:28:11;;;;;;;30.65;3.90;;;;;;;26.63;31.23;98243.91;5092143;28;20016;-47
2022/08/13 05:30:39;;;;;;;10.00;2.78;;;;;;;27.15;30.27;98247.69;5090824;28;20028;-48
2022/08/13 05:33:20;;;;;;;4.28;2.03;;;;;;;27.36;29.75;98245.88;5090819;28;20027;-47
2022/08/13 05:35:55;;;;;;;8.20;2.70;;;;;;;27.06;30.16;98247.66;5092245;28;20399;-46
2022/08/13 05:38:22;;;;;;;4.93;2.10;;;;;;;26.86;30.15;98251.81;5092032;28;20016;-47
2022/08/13 05:40:56;;;;;;;6.95;2.15;;;;;;;26.97;30.35;98245.00;5090673;28;20501;-47
2022/08/13 05:43:29;;;;;;;4.70;2.05;;;;;;;27.31;29.97;98235.28;5090788;28;20427;-47
2022/08/13 05:45:57;;;;;;;6.47;1.85;;;;;;;27.88;29.54;98234.91;5090744;28;20110;-48
2022/08/13 05:48:35;;;;;;;7.03;2.10;;;;;;;28.76;28.09;98235.13;5090654;28;20039;-48
2022/08/13 05:51:03;;;;;;;7.75;2.10;;;;;;;29.62;26.87;98232.63;5090670;28;20032;-48
2022/08/13 05:53:32;;;;;;;7.82;2.17;;;;;;;30.32;25.69;98242.53;5090546;28;20012;-48
2022/08/13 05:55:58;;;;;;;5.38;2.13;;;;;;;30.66;24.71;98246.59;5091707;28;20051;-47
2022/08/13 05:58:23;;;;;;;4.90;1.80;;;;;;;30.93;24.46;98248.88;5091878;28;20024;-47
2022/08/13 06:03:35;;;;;;;8.93;2.08;;;;;;;31.65;23.20;98249.63;5091842;28;20085;-47
2022/08/13 06:06:05;;;;;;;7.95;2.85;;;;;;;31.92;22.74;98247.13;5090766;28;20032;-48
2022/08/13 06:08:37;;;;;;;5.70;1.80;;;;;;;32.63;22.50;98250.63;5090743;28;20424;-47
2022/08/13 06:11:08;;;;;;;7.18;2.22;;;;;;;33.41;21.74;98247.03;5090581;28;20035;-48
2022/08/13 06:13:39;;;;;;;10.52;2.20;;;;;;;33.88;20.94;98245.84;5091779;28;20098;-46
2022/08/13 06:16:10;;;;;;;10.65;2.13;;;;;;;34.29;20.18;98242.53;5091593;28;20082;-48
2022/08/13 06:18:40;;;;;;;13.43;2.22;;;;;;;34.88;19.81;98248.34;5090330;28;20564;-48
2022/08/13 06:21:10;;;;;;;4.05;1.98;;;;;;;35.54;19.25;98243.13;5091923;28;20463;-48
2022/08/13 06:23:38;;;;;;;9.70;2.20;;;;;;;35.86;18.63;98239.88;5091298;28;20127;-49
2022/08/13 06:26:06;;;;;;;3.83;2.05;;;;;;;36.18;18.14;98248.28;5091573;28;20028;-49
2022/08/13 06:28:35;;;;;;;8.48;2.00;;;;;;;36.48;17.96;98241.78;5090240;28;20028;-48
2022/08/13 06:31:04;;;;;;;11.30;2.25;;;;;;;36.94;17.88;98243.91;5091530;28;20127;-49
2022/08/13 06:33:32;;;;;;;12.68;2.75;;;;;;;37.39;17.17;98244.38;5091543;28;20063;-48
2022/08/13 06:36:04;;;;;;;8.13;1.80;;;;;;;37.28;16.97;98240.84;5093127;28;20027;-49
2022/08/13 06:38:36;;;;;;;3.97;1.80;;;;;;;37.14;17.15;98255.31;5095626;28;20028;-50
2022/08/13 06:41:07;;;;;;;16.20;3.10;;;;;;;37.24;17.64;98256.50;5095388;28;20398;-50
2022/08/13 06:43:40;;;;;;;6.65;2.10;;;;;;;36.90;17.49;98254.81;5095316;28;20031;-50
2022/08/13 06:46:11;;;;;;;7.60;2.45;;;;;;;36.72;17.56;98259.47;5095249;28;20024;-49
2022/08/13 06:48:42;;;;;;;22.77;2.95;;;;;;;37.25;17.43;98247.91;5095129;28;20040;-50
2022/08/13 06:51:11;;;;;;;10.38;1.95;;;;;;;37.23;17.48;98257.66;5093815;28;20096;-50
2022/08/13 06:53:40;;;;;;;12.75;2.65;;;;;;;37.55;17.48;98254.91;5095061;28;20028;-49
2022/08/13 06:56:11;;;;;;;9.40;2.00;;;;;;;38.28;17.08;98262.69;5093683;28;20371;-50
2022/08/13 06:58:39;;;;;;;10.75;2.92;;;;;;;38.95;16.28;98257.31;5095235;28;20024;-49
2022/08/13 07:01:05;;;;;;;7.72;1.85;;;;;;;38.96;16.27;98267.91;5094912;28;20548;-50
2022/08/13 07:03:34;;;;;;;12.15;2.67;;;;;;;38.00;16.83;98258.03;5093507;28;20026;-50
2022/08/13 07:06:01;;;;;;;14.00;3.35;;;;;;;37.41;17.04;98261.19;5095127;28;20447;-49
2022/08/13 07:08:29;;;;;;;13.25;2.42;;;;;;;37.42;17.20;98254.53;5093499;28;20022;-49
2022/08/13 07:13:49;;;;;;;12.00;3.30;;;;;;;36.83;17.19;98257.56;5094982;28;20043;-48
2022/08/13 07:16:16;;;;;;;5.63;2.10;;;;;;;36.56;17.03;98265.25;5094623;28;20097;-48
2022/08/13 07:18:45;;;;;;;5.18;1.83;;;;;;;36.27;17.00;98269.81;5094538;28;20531;-49
2022/08/13 07:21:12;;;;;;;15.13;2.53;;;;;;;36.22;17.17;98268.19;5094479;28;20490;-49
2022/08/13 07:23:42;;;;;;;15.88;2.88;;;;;;;36.44;17.21;98263.63;5094265;28;20047;-50
2022/08/13 07:26:12;;;;;;;32.55;4.07;;;;;;;36.27;17.06;98264.34;5094462;28;20535;-50
2022/08/13 07:28:40;;;;;;;12.18;2.15;;;;;;;37.12;16.72;98260.38;5094689;28;20431;-50
2022/08/13 07:31:07;;;;;;;10.25;2.20;;;;;;;37.91;15.88;98261.19;5094588;28;20460;-50
2022/08/13 07:33:35;;;;;;;10.60;1.88;;;;;;;38.78;15.38;98258.19;5094280;28;20494;-49
2022/08/13 07:36:12;;;;;;;11.68;2.90;;;;;;;39.21;14.59;98266.19;5094198;28;20511;-50
2022/08/13 07:38:38;;;;;;;15.07;3.42;;;;;;;40.11;14.17;98252.50;5094546;28;20036;-50
2022/08/13 07:41:04;;;;;;;7.70;2.10;;;;;;;40.78;13.40;98260.38;5094141;28;20564;-49
2022/08/13 07:43:39;;;;;;;4.05;1.40;;;;;;;40.66;13.35;98264.44;5092781;28;20032;-50
2022/08/13 07:46:10;;;;;;;9.63;2.45;;;;;;;40.54;13.36;98258.28;5093330;28;20020;-50
2022/08/13 07:48:41;;;;;;;13.43;2.47;;;;;;;40.56;13.40;98263.38;5092799;28;20044;-50
2022/08/13 07:51:18;;;;;;;20.30;3.83;;;;;;;40.87;13.33;98266.13;5093927;28;20048;-51
2022/08/13 07:53:49;;;;;;;9.57;2.17;;;;;;;41.09;13.16;98267.41;5093912;28;20382;-48
2022/08/13 07:56:21;;;;;;;3.08;1.50;;;;;;;41.11;13.13;98261.44;5092498;28;20036;-49
2022/08/13 07:58:47;;;;;;;9.32;1.85;;;;;;;41.80;12.95;98261.97;5093763;28;20028;-49
2022/08/13 08:01:13;;;;;;;14.00;2.85;;;;;;;42.26;15.18;98262.28;5093770;28;20451;-49
2022/08/13 08:03:42;;;;;;;7.82;2.00;;;;;;;41.18;14.43;98263.38;5093714;28;20120;-50
2022/08/13 08:06:14;;;;;;;18.55;2.60;;;;;;;40.59;15.03;98268.06;5093923;28;20366;-47
2022/08/13 08:08:42;;;;;;;19.67;2.50;;;;;;;40.95;13.93;98270.34;5093675;28;20031;-49
2022/08/13 08:12:30;;;;;;;12.05;2.25;;;;;;;41.02;14.16;98261.22;5093814;28;20117;-50
2022/08/13 08:13:59;;;;;;;39.33;4.40;;;;;;;41.05;13.72;98258.41;5093372;28;20063;-48
2022/08/13 08:16:30;;;;;;;27.88;3.38;;;;;;;41.52;13.24;98263.22;5092037;28;20032;-50
2022/08/13 08:19:00;;;;;;;11.20;2.78;;;;;;;41.95;12.77;98258.94;5092190;28;20504;-51
2022/08/13 08:21:28;;;;;;;16.40;2.55;;;;;;;41.56;12.89;98265.91;5092050;28;20031;-49
2022/08/13 08:23:59;;;;;;;20.80;4.88;;;;;;;41.10;13.10;98268.16;5091809;28;20127;-49
2022/08/13 08:26:30;;;;;;;9.52;2.00;;;;;;;41.40;13.04;98275.59;5093527;28;20047;-48
2022/08/13 08:28:58;;;;;;;7.90;2.33;;;;;;;41.11;13.34;98269.72;5093232;28;20116;-51
2022/08/13 08:31:26;;;;;;;8.90;1.70;;;;;;;40.74;13.42;98268.66;5093182;28;20095;-52
2022/08/13 08:33:56;;;;;;;13.52;2.60;;;;;;;40.59;13.75;98262.56;5091879;28;20024;-50
2022/08/13 08:36:22;;;;;;;7.85;2.33;;;;;;;40.45;14.11;98268.25;5093037;28;20020;-50
2022/08/13 08:44:31;;;;;;;10.30;3.00;;;;;;;41.40;13.54;98275.59;5093517;28;20169;-53
2022/08/13 08:47:00;;;;;;;11.45;2.00;;;;;;;42.34;12.54;98268.44;5092932;28;20501;-52
2022/08/13 08:49:29;;;;;;;6.03;1.17;;;;;;;42.78;12.43;98269.13;5092787;28;20036;-53
2022/08/13 08:51:54;;;;;;;11.07;1.67;;;;;;;43.47;11.82;98261.63;5092853;28;20020;-52
2022/08/13 08:54:22;;;;;;;9.10;2.20;;;;;;;44.28;11.56;98268.22;5092767;28;20020;-51
2022/08/13 08:56:49;;;;;;;12.20;2.10;;;;;;;44.41;10.92;98273.00;5092848;28;20424;-51
2022/08/13 08:59:16;;;;;;;13.70;1.83;;;;;;;44.66;11.12;98269.53;5091330;28;20024;-52
2022/08/13 09:01:44;;;;;;;8.85;1.85;;;;;;;44.89;11.13;98265.69;5092630;28;20095;-52
2022/08/13 09:04:12;;;;;;;9.43;2.08;;;;;;;44.79;11.05;98264.00;5092514;28;20101;-50
2022/08/13 09:06:38;;;;;;;8.82;1.60;;;;;;;44.30;11.34;98269.78;5092417;28;20104;-51
2022/08/13 09:09:07;;;;;;;8.80;1.55;;;;;;;43.85;11.48;98258.31;5092425;28;20449;-51
2022/08/13 09:11:36;;;;;;;17.25;3.30;;;;;;;43.90;11.57;98259.00;5092454;28;20024;-51
2022/08/13 09:14:05;;;;;;;11.48;1.48;;;;;;;44.07;11.31;98268.81;5092419;28;20024;-51
2022/08/13 09:16:32;;;;;;;8.20;1.50;;;;;;;44.44;11.20;98261.84;5092225;28;20065;-51
2022/08/13 09:18:59;;;;;;;7.90;1.60;;;;;;;44.98;11.25;98262.28;5092958;28;20036;-51
2022/08/13 09:21:25;;;;;;;14.52;2.55;;;;;;;44.90;11.42;98267.25;5092288;28;20493;-53
2022/08/13 09:23:52;;;;;;;12.52;3.08;;;;;;;44.44;11.47;98258.31;5095529;28;20051;-52
2022/08/13 09:26:23;;;;;;;8.02;1.33;;;;;;;44.71;11.01;98257.13;5093608;28;20052;-52
2022/08/13 09:28:56;;;;;;;3.15;1.58;;;;;;;45.38;10.65;98259.81;5092199;28;20032;-51
2022/08/13 09:31:24;;;;;;;7.30;1.67;;;;;;;45.51;10.61;98253.44;5092458;28;20028;-51
2022/08/13 09:33:52;;;;;;;9.32;1.90;;;;;;;45.08;10.92;98249.28;5092031;28;20064;-51
2022/08/13 09:36:22;;;;;;;4.13;1.58;;;;;;;44.89;10.59;98257.38;5091985;28;20459;-51
2022/08/13 09:38:49;;;;;;;10.70;2.05;;;;;;;44.77;10.89;98249.81;5091975;28;20513;-52
2022/08/13 09:41:28;;;;;;;9.48;1.80;;;;;;;45.33;10.77;98242.97;5091977;28;20077;-53
2022/08/13 09:43:57;;;;;;;3.78;1.40;;;;;;;45.19;10.69;98244.94;5090769;28;20030;-52
2022/08/13 09:46:23;;;;;;;15.95;1.70;;;;;;;45.52;10.44;98238.34;5092211;28;20032;-52
2022/08/13 09:48:51;;;;;;;7.30;1.73;;;;;;;46.37;9.98;98242.13;5092247;28;20366;-52
2022/08/13 09:51:18;;;;;;;8.40;1.85;;;;;;;46.32;10.34;98234.38;5091820;28;20036;-50
2022/08/13 09:53:47;;;;;;;10.02;2.03;;;;;;;46.19;10.13;98248.34;5090551;28;20031;-50
2022/08/13 09:56:17;;;;;;;10.38;1.63;;;;;;;46.36;10.08;98246.13;5091710;28;20489;-51
2022/08/13 09:58:49;;;;;;;14.52;2.53;;;;;;;46.46;10.10;98250.50;5092149;28;20035;-52
2022/08/13 10:01:15;;;;;;;7.72;3.38;;;;;;;46.20;9.86;98245.09;5092007;28;20032;-52
2022/08/13 10:03:42;;;;;;;6.28;2.55;;;;;;;46.54;9.67;98240.69;5090481;28;20028;-53
2022/08/13 10:06:09;;;;;;;4.93;1.30;;;;;;;46.95;9.55;98235.94;5091702;28;20028;-53
2022/08/13 10:08:35;;;;;;;5.53;1.80;;;;;;;46.69;9.50;98234.56;5091808;28;20433;-53
2022/08/13 10:11:01;;;;;;;12.13;2.28;;;;;;;46.53;9.85;98233.59;5094970;28;20035;-53
2022/08/13 10:13:28;;;;;;;10.98;2.75;;;;;;;46.24;9.69;98239.41;5096108;28;20081;-52
2022/08/13 10:15:54;;;;;;;6.68;2.13;;;;;;;45.88;9.97;98234.38;5095736;28;20020;-52
2022/08/13 10:18:20;;;;;;;4.85;1.60;;;;;;;45.69;9.57;98239.00;5094468;28;20511;-52
2022/08/13 10:20:48;;;;;;;9.15;2.30;;;;;;;45.48;9.88;98227.41;5095738;28;20042;-51
2022/08/13 10:23:16;;;;;;;16.02;2.33;;;;;;;45.33;10.34;98226.34;5095857;28;20020;-51
2022/08/13 10:25:45;;;;;;;12.70;2.33;;;;;;;44.94;10.20;98229.16;5094027;28;20509;-52
2022/08/13 10:28:37;;;;;;;12.25;1.88;;;;;;;44.92;10.37;98223.28;5095778;28;20024;-51
2022/08/13 10:31:08;;;;;;;8.80;1.50;;;;;;;45.14;10.17;98220.59;5073389;28;20520;-51
2022/08/13 10:33:37;;;;;;;9.38;2.00;;;;;;;45.79;9.63;98221.97;5095535;28;20030;-52
2022/08/13 10:36:05;;;;;;;4.68;1.23;;;;;;;46.01;9.56;98224.00;5095335;28;20032;-51
2022/08/13 10:38:32;;;;;;;7.18;2.03;;;;;;;45.48;9.60;98223.84;5095406;28;20055;-53
2022/08/13 10:41:00;;;;;;;7.22;1.80;;;;;;;45.22;9.45;98229.44;5094084;28;20507;-51
2022/08/13 10:43:27;;;;;;;14.27;2.10;;;;;;;44.66;9.89;98219.72;5093927;28;20016;-52
2022/08/13 10:45:59;;;;;;;8.38;1.33;;;;;;;44.88;9.48;98214.31;5094060;28;20106;-51
2022/08/13 10:48:29;;;;;;;14.47;4.20;;;;;;;45.59;8.66;98208.41;5095235;28;20028;-51
2022/08/13 10:50:55;;;;;;;5.75;3.65;;;;;;;45.51;9.33;98217.41;5093905;28;20039;-51
2022/08/13 10:56:08;;;;;;;7.72;1.98;;;;;;;45.61;9.17;98205.94;5095187;28;20158;-50
2022/08/13 10:58:35;;;;;;;18.52;3.45;;;;;;;45.91;9.18;98206.50;5094926;28;20024;-52
2022/08/13 11:01:02;;;;;;;2.10;1.00;;;;;;;45.93;9.09;98214.38;5094886;28;20024;-50
2022/08/13 11:03:30;;;;;;;6.07;1.33;;;;;;;45.82;9.09;98203.66;5094888;28;20036;-51
2022/08/13 11:06:03;;;;;;;4.68;1.63;;;;;;;45.85;9.19;98192.44;5094808;28;20024;-50
2022/08/13 11:08:39;;;;;;;3.65;1.42;;;;;;;46.11;9.12;98200.66;5094865;28;20031;-50
2022/08/13 11:11:06;;;;;;;5.13;1.30;;;;;;;46.13;8.91;98198.19;5094880;28;20039;-51
2022/08/13 11:13:32;;;;;;;4.35;1.60;;;;;;;45.80;9.15;98195.81;5093474;28;20031;-52
2022/08/13 11:16:00;;;;;;;6.47;1.58;;;;;;;45.91;8.91;98200.97;5093285;28;20052;-53
2022/08/13 11:18:27;;;;;;;3.85;1.23;;;;;;;46.24;8.51;98195.81;5094565;28;20016;-51
2022/08/13 11:21:03;;;;;;;4.13;1.08;;;;;;;46.52;8.44;98195.94;5093959;28;20485;-50
2022/08/13 11:23:30;;;;;;;10.05;1.83;;;;;;;46.74;8.48;98200.66;5094460;28;20119;-52
2022/08/13 11:25:56;;;;;;;8.68;1.23;;;;;;;46.03;8.54;98199.38;5094305;28;20131;-51
2022/08/13 11:28:22;;;;;;;11.32;2.38;;;;;;;45.29;9.31;98201.50;5093199;28;20021;-52
2022/08/13 11:30:53;;;;;;;5.50;1.60;;;;;;;44.88;9.28;98194.94;5093177;28;20043;-52
2022/08/13 11:33:22;;;;;;;4.30;1.10;;;;;;;45.06;9.04;98189.56;5094678;28;20032;-51
2022/08/13 11:35:48;;;;;;;18.70;5.20;;;;;;;45.05;9.43;98199.09;5094261;28;20059;-51
2022/08/13 11:38:15;;;;;;;10.43;2.30;;;;;;;44.85;9.72;98182.69;5094318;28;20032;-50
2022/08/13 11:40:55;;;;;;;6.38;1.20;;;;;;;44.96;9.48;98187.94;5094229;28;20031;-50
2022/08/13 11:43:29;;;;;;;5.30;1.30;;;;;;;45.51;8.99;98179.38;5094233;28;20773;-51
2022/08/13 11:45:58;;;;;;;9.90;1.83;;;;;;;45.35;9.35;98177.56;5092861;28;20034;-51
2022/08/13 11:48:24;;;;;;;7.22;1.80;;;;;;;45.63;9.20;98180.56;5092796;28;20115;-51
2022/08/13 11:50:51;;;;;;;17.25;3.38;;;;;;;45.65;9.42;98181.66;5094282;28;20024;-52
2022/08/13 11:53:18;;;;;;;10.77;8.13;;;;;;;45.45;9.38;98176.41;5094174;28;20028;-49
2022/08/13 11:55:44;;;;;;;14.88;3.72;;;;;;;45.33;9.18;98171.69;5093813;28;20031;-51
2022/08/13 11:58:10;;;;;;;9.52;2.55;;;;;;;45.09;9.37;98167.75;5093867;28;20028;-51
2022/08/13 12:00:38;;;;;;;4.43;1.20;;;;;;;45.61;9.13;98177.47;5092480;28;20024;-50
2022/08/13 12:03:05;;;;;;;9.68;1.60;;;;;;;45.64;9.15;98179.31;5093765;28;20024;-51
2022/08/13 12:05:31;;;;;;;4.15;1.02;;;;;;;45.54;9.29;98172.16;5093712;28;20398;-52